sensor_id;sensor_type;location;lat;lon;timestamp;P1;durP1;ratioP1;P2;durP2;ratioP2
10341;SDS011;5216;54.602;18.356;2023-02-10T00:01:52;13.93;;;9.00;;
10341;SDS011;5216;54.602;18.356;2023-02-10T00:04:18;45.93;;;20.77;;
10341;SDS011;5216;54.602;18.356;2023-02-10T00:06:45;16.03;;;9.57;;
10341;SDS011;5216;54.602;18.356;2023-02-10T00:09:12;13.63;;;8.57;;
10341;SDS011;5216;54.602;18.356;2023-02-10T00:11:40;26.07;;;13.37;;
10341;SDS011;5216;54.602;18.356;2023-02-10T00:14:26;23.17;;;12.27;;
10341;SDS011;5216;54.602;18.356;2023-02-10T00:16:54;17.83;;;10.77;;
10341;SDS011;5216;54.602;18.356;2023-02-10T00:26:34;13.77;;;9.30;;
10341;SDS011;5216;54.602;18.356;2023-02-10T00:29:01;12.20;;;9.13;;
10341;SDS011;5216;54.602;18.356;2023-02-10T00:31:27;12.53;;;10.23;;
10341;SDS011;5216;54.602;18.356;2023-02-10T00:33:54;13.60;;;9.30;;
10341;SDS011;5216;54.602;18.356;2023-02-10T00:36:20;11.77;;;8.97;;
10341;SDS011;5216;54.602;18.356;2023-02-10T00:38:48;16.27;;;10.03;;
10341;SDS011;5216;54.602;18.356;2023-02-10T00:41:15;15.20;;;10.87;;
10341;SDS011;5216;54.602;18.356;2023-02-10T00:43:42;14.60;;;9.83;;
10341;SDS011;5216;54.602;18.356;2023-02-10T00:46:11;20.13;;;12.70;;
10341;SDS011;5216;54.602;18.356;2023-02-10T00:48:40;32.33;;;16.07;;
10341;SDS011;5216;54.602;18.356;2023-02-10T00:51:08;14.13;;;9.27;;
10341;SDS011;5216;54.602;18.356;2023-02-10T00:53:37;11.93;;;9.27;;
10341;SDS011;5216;54.602;18.356;2023-02-10T00:56:04;27.53;;;15.00;;
10341;SDS011;5216;54.602;18.356;2023-02-10T00:58:31;14.30;;;9.60;;
10341;SDS011;5216;54.602;18.356;2023-02-10T01:00:57;22.00;;;13.40;;
10341;SDS011;5216;54.602;18.356;2023-02-10T01:03:24;17.00;;;11.13;;
10341;SDS011;5216;54.602;18.356;2023-02-10T01:05:50;17.93;;;11.20;;
10341;SDS011;5216;54.602;18.356;2023-02-10T01:08:17;16.70;;;10.33;;
10341;SDS011;5216;54.602;18.356;2023-02-10T01:10:44;14.97;;;11.63;;
10341;SDS011;5216;54.602;18.356;2023-02-10T01:13:11;13.83;;;10.47;;
10341;SDS011;5216;54.602;18.356;2023-02-10T01:15:42;13.50;;;9.77;;
10341;SDS011;5216;54.602;18.356;2023-02-10T01:18:09;13.83;;;9.63;;
10341;SDS011;5216;54.602;18.356;2023-02-10T01:20:37;15.63;;;10.70;;
10341;SDS011;5216;54.602;18.356;2023-02-10T01:23:04;16.73;;;11.53;;
10341;SDS011;5216;54.602;18.356;2023-02-10T01:25:31;15.43;;;10.53;;
10341;SDS011;5216;54.602;18.356;2023-02-10T01:27:58;14.23;;;9.70;;
10341;SDS011;5216;54.602;18.356;2023-02-10T01:30:24;12.90;;;9.80;;
10341;SDS011;5216;54.602;18.356;2023-02-10T01:32:54;15.73;;;9.50;;
10341;SDS011;5216;54.602;18.356;2023-02-10T01:35:21;12.53;;;10.17;;
10341;SDS011;5216;54.602;18.356;2023-02-10T01:37:47;13.00;;;9.30;;
10341;SDS011;5216;54.602;18.356;2023-02-10T01:40:14;14.23;;;8.77;;
10341;SDS011;5216;54.602;18.356;2023-02-10T01:42:41;12.23;;;8.20;;
10341;SDS011;5216;54.602;18.356;2023-02-10T01:48:36;12.13;;;8.70;;
10341;SDS011;5216;54.602;18.356;2023-02-10T01:51:04;16.07;;;8.57;;
10341;SDS011;5216;54.602;18.356;2023-02-10T01:53:32;13.23;;;8.53;;
10341;SDS011;5216;54.602;18.356;2023-02-10T01:55:59;14.47;;;9.03;;
10341;SDS011;5216;54.602;18.356;2023-02-10T01:58:28;12.77;;;9.10;;
10341;SDS011;5216;54.602;18.356;2023-02-10T02:00:55;14.27;;;8.97;;
10341;SDS011;5216;54.602;18.356;2023-02-10T02:03:21;13.30;;;8.53;;
10341;SDS011;5216;54.602;18.356;2023-02-10T02:05:48;11.80;;;8.77;;
10341;SDS011;5216;54.602;18.356;2023-02-10T02:08:22;17.17;;;9.70;;
10341;SDS011;5216;54.602;18.356;2023-02-10T02:16:08;13.70;;;9.07;;
10341;SDS011;5216;54.602;18.356;2023-02-10T02:18:42;13.47;;;8.50;;
10341;SDS011;5216;54.602;18.356;2023-02-10T02:23:54;13.33;;;8.93;;
10341;SDS011;5216;54.602;18.356;2023-02-10T02:32:39;13.50;;;8.10;;
10341;SDS011;5216;54.602;18.356;2023-02-10T02:35:13;12.87;;;9.00;;
10341;SDS011;5216;54.602;18.356;2023-02-10T02:37:43;11.90;;;8.73;;
10341;SDS011;5216;54.602;18.356;2023-02-10T02:40:10;14.17;;;9.00;;
10341;SDS011;5216;54.602;18.356;2023-02-10T02:42:37;15.60;;;8.97;;
10341;SDS011;5216;54.602;18.356;2023-02-10T02:45:06;13.30;;;8.80;;
10341;SDS011;5216;54.602;18.356;2023-02-10T02:50:23;17.30;;;9.53;;
10341;SDS011;5216;54.602;18.356;2023-02-10T02:55:38;11.50;;;8.27;;
10341;SDS011;5216;54.602;18.356;2023-02-10T02:58:30;11.90;;;8.60;;
10341;SDS011;5216;54.602;18.356;2023-02-10T03:00:54;16.77;;;9.10;;
10341;SDS011;5216;54.602;18.356;2023-02-10T03:03:21;15.67;;;10.00;;
10341;SDS011;5216;54.602;18.356;2023-02-10T03:05:48;14.77;;;8.90;;
10341;SDS011;5216;54.602;18.356;2023-02-10T03:08:15;14.03;;;9.30;;
10341;SDS011;5216;54.602;18.356;2023-02-10T03:10:41;12.67;;;8.67;;
10341;SDS011;5216;54.602;18.356;2023-02-10T03:13:07;13.20;;;9.03;;
10341;SDS011;5216;54.602;18.356;2023-02-10T03:15:34;13.23;;;8.93;;
10341;SDS011;5216;54.602;18.356;2023-02-10T03:18:01;15.80;;;8.37;;
10341;SDS011;5216;54.602;18.356;2023-02-10T03:20:28;14.47;;;8.27;;
10341;SDS011;5216;54.602;18.356;2023-02-10T03:22:54;16.10;;;8.50;;
10341;SDS011;5216;54.602;18.356;2023-02-10T03:25:21;12.33;;;8.30;;
10341;SDS011;5216;54.602;18.356;2023-02-10T03:27:47;16.60;;;9.10;;
10341;SDS011;5216;54.602;18.356;2023-02-10T03:30:14;13.30;;;8.57;;
10341;SDS011;5216;54.602;18.356;2023-02-10T03:32:40;12.30;;;8.63;;
10341;SDS011;5216;54.602;18.356;2023-02-10T03:35:07;13.97;;;8.40;;
10341;SDS011;5216;54.602;18.356;2023-02-10T03:37:33;13.33;;;8.60;;
10341;SDS011;5216;54.602;18.356;2023-02-10T03:40:00;13.70;;;9.00;;
10341;SDS011;5216;54.602;18.356;2023-02-10T03:42:26;11.33;;;8.40;;
10341;SDS011;5216;54.602;18.356;2023-02-10T03:44:53;14.17;;;8.97;;
10341;SDS011;5216;54.602;18.356;2023-02-10T03:47:19;14.57;;;9.47;;
10341;SDS011;5216;54.602;18.356;2023-02-10T03:49:46;13.20;;;8.90;;
10341;SDS011;5216;54.602;18.356;2023-02-10T03:52:12;13.07;;;8.70;;
10341;SDS011;5216;54.602;18.356;2023-02-10T03:54:39;15.10;;;9.27;;
10341;SDS011;5216;54.602;18.356;2023-02-10T03:57:05;13.87;;;8.83;;
10341;SDS011;5216;54.602;18.356;2023-02-10T03:59:32;14.13;;;8.60;;
10341;SDS011;5216;54.602;18.356;2023-02-10T04:01:58;15.27;;;8.43;;
10341;SDS011;5216;54.602;18.356;2023-02-10T04:04:25;15.13;;;8.40;;
10341;SDS011;5216;54.602;18.356;2023-02-10T04:06:51;15.80;;;8.93;;
10341;SDS011;5216;54.602;18.356;2023-02-10T04:09:18;13.90;;;8.33;;
10341;SDS011;5216;54.602;18.356;2023-02-10T04:11:44;13.73;;;8.57;;
10341;SDS011;5216;54.602;18.356;2023-02-10T04:18:10;15.23;;;8.70;;
10341;SDS011;5216;54.602;18.356;2023-02-10T04:20:37;16.40;;;9.43;;
10341;SDS011;5216;54.602;18.356;2023-02-10T04:23:03;16.43;;;9.47;;
10341;SDS011;5216;54.602;18.356;2023-02-10T04:25:30;14.70;;;9.57;;
10341;SDS011;5216;54.602;18.356;2023-02-10T04:27:56;14.00;;;9.10;;
10341;SDS011;5216;54.602;18.356;2023-02-10T04:30:23;18.80;;;9.37;;
10341;SDS011;5216;54.602;18.356;2023-02-10T04:32:49;14.23;;;9.47;;
10341;SDS011;5216;54.602;18.356;2023-02-10T04:35:16;14.93;;;9.60;;
10341;SDS011;5216;54.602;18.356;2023-02-10T04:37:42;15.90;;;9.40;;
10341;SDS011;5216;54.602;18.356;2023-02-10T04:40:09;15.70;;;9.60;;
10341;SDS011;5216;54.602;18.356;2023-02-10T04:42:35;15.67;;;10.10;;
10341;SDS011;5216;54.602;18.356;2023-02-10T04:45:02;18.47;;;9.57;;
10341;SDS011;5216;54.602;18.356;2023-02-10T04:47:28;14.77;;;9.80;;
10341;SDS011;5216;54.602;18.356;2023-02-10T04:49:56;17.13;;;9.67;;
10341;SDS011;5216;54.602;18.356;2023-02-10T04:52:22;18.60;;;10.00;;
10341;SDS011;5216;54.602;18.356;2023-02-10T04:58:17;17.37;;;10.13;;
10341;SDS011;5216;54.602;18.356;2023-02-10T05:00:44;14.80;;;10.27;;
10341;SDS011;5216;54.602;18.356;2023-02-10T05:03:10;13.27;;;9.00;;
10341;SDS011;5216;54.602;18.356;2023-02-10T05:05:37;19.80;;;10.37;;
10341;SDS011;5216;54.602;18.356;2023-02-10T05:08:03;22.60;;;11.00;;
10341;SDS011;5216;54.602;18.356;2023-02-10T05:10:30;19.73;;;10.67;;
10341;SDS011;5216;54.602;18.356;2023-02-10T05:12:56;17.67;;;10.67;;
10341;SDS011;5216;54.602;18.356;2023-02-10T05:15:23;19.27;;;10.33;;
10341;SDS011;5216;54.602;18.356;2023-02-10T05:17:51;15.10;;;9.83;;
10341;SDS011;5216;54.602;18.356;2023-02-10T05:20:17;14.03;;;9.10;;
10341;SDS011;5216;54.602;18.356;2023-02-10T05:22:44;17.83;;;9.47;;
10341;SDS011;5216;54.602;18.356;2023-02-10T05:25:10;23.03;;;10.47;;
10341;SDS011;5216;54.602;18.356;2023-02-10T05:27:37;17.03;;;9.60;;
10341;SDS011;5216;54.602;18.356;2023-02-10T05:30:10;15.77;;;9.83;;
10341;SDS011;5216;54.602;18.356;2023-02-10T05:32:39;15.40;;;10.00;;
10341;SDS011;5216;54.602;18.356;2023-02-10T05:35:06;15.33;;;10.20;;
10341;SDS011;5216;54.602;18.356;2023-02-10T05:37:32;18.97;;;10.50;;
10341;SDS011;5216;54.602;18.356;2023-02-10T05:39:59;17.20;;;10.50;;
10341;SDS011;5216;54.602;18.356;2023-02-10T05:42:25;18.93;;;10.77;;
10341;SDS011;5216;54.602;18.356;2023-02-10T05:44:52;14.23;;;9.03;;
10341;SDS011;5216;54.602;18.356;2023-02-10T05:51:17;18.70;;;9.57;;
10341;SDS011;5216;54.602;18.356;2023-02-10T05:53:44;20.13;;;10.40;;
10341;SDS011;5216;54.602;18.356;2023-02-10T05:56:10;18.90;;;9.70;;
10341;SDS011;5216;54.602;18.356;2023-02-10T05:58:37;18.77;;;9.57;;
10341;SDS011;5216;54.602;18.356;2023-02-10T06:01:07;18.23;;;9.67;;
10341;SDS011;5216;54.602;18.356;2023-02-10T06:03:34;18.80;;;10.00;;
10341;SDS011;5216;54.602;18.356;2023-02-10T06:06:01;19.40;;;10.23;;
10341;SDS011;5216;54.602;18.356;2023-02-10T06:08:27;21.10;;;10.27;;
10341;SDS011;5216;54.602;18.356;2023-02-10T06:10:54;19.00;;;9.77;;
10341;SDS011;5216;54.602;18.356;2023-02-10T06:13:20;18.07;;;9.90;;
10341;SDS011;5216;54.602;18.356;2023-02-10T06:15:47;17.97;;;9.47;;
10341;SDS011;5216;54.602;18.356;2023-02-10T06:18:14;16.00;;;9.40;;
10341;SDS011;5216;54.602;18.356;2023-02-10T06:20:40;20.87;;;9.03;;
10341;SDS011;5216;54.602;18.356;2023-02-10T06:23:07;19.23;;;9.13;;
10341;SDS011;5216;54.602;18.356;2023-02-10T06:25:33;17.40;;;8.83;;
10341;SDS011;5216;54.602;18.356;2023-02-10T06:28:02;18.13;;;8.83;;
10341;SDS011;5216;54.602;18.356;2023-02-10T06:30:28;16.27;;;8.73;;
10341;SDS011;5216;54.602;18.356;2023-02-10T06:32:55;13.67;;;8.20;;
10341;SDS011;5216;54.602;18.356;2023-02-10T06:39:08;16.60;;;9.03;;
10341;SDS011;5216;54.602;18.356;2023-02-10T06:41:35;19.90;;;9.43;;
10341;SDS011;5216;54.602;18.356;2023-02-10T06:44:01;17.83;;;9.87;;
10341;SDS011;5216;54.602;18.356;2023-02-10T06:46:27;21.00;;;9.20;;
10341;SDS011;5216;54.602;18.356;2023-02-10T06:48:54;17.17;;;8.43;;
10341;SDS011;5216;54.602;18.356;2023-02-10T07:03:21;16.03;;;7.73;;
10341;SDS011;5216;54.602;18.356;2023-02-10T07:05:48;17.00;;;8.73;;
10341;SDS011;5216;54.602;18.356;2023-02-10T07:08:15;15.57;;;9.10;;
10341;SDS011;5216;54.602;18.356;2023-02-10T07:10:41;13.43;;;9.17;;
10341;SDS011;5216;54.602;18.356;2023-02-10T07:13:08;16.80;;;9.10;;
10341;SDS011;5216;54.602;18.356;2023-02-10T07:15:34;14.47;;;8.50;;
10341;SDS011;5216;54.602;18.356;2023-02-10T07:18:06;17.40;;;8.50;;
10341;SDS011;5216;54.602;18.356;2023-02-10T07:20:33;15.70;;;9.10;;
10341;SDS011;5216;54.602;18.356;2023-02-10T07:22:59;17.67;;;8.00;;
10341;SDS011;5216;54.602;18.356;2023-02-10T07:25:26;14.47;;;8.10;;
10341;SDS011;5216;54.602;18.356;2023-02-10T07:27:52;16.50;;;8.70;;
10341;SDS011;5216;54.602;18.356;2023-02-10T07:30:19;19.40;;;9.33;;
10341;SDS011;5216;54.602;18.356;2023-02-10T07:32:45;18.10;;;8.47;;
10341;SDS011;5216;54.602;18.356;2023-02-10T07:35:12;17.87;;;8.73;;
10341;SDS011;5216;54.602;18.356;2023-02-10T07:37:39;19.97;;;9.10;;
10341;SDS011;5216;54.602;18.356;2023-02-10T07:40:06;20.27;;;8.77;;
10341;SDS011;5216;54.602;18.356;2023-02-10T07:42:32;16.77;;;7.47;;
10341;SDS011;5216;54.602;18.356;2023-02-10T07:45:01;16.57;;;6.33;;
10341;SDS011;5216;54.602;18.356;2023-02-10T07:47:28;16.87;;;6.93;;
10341;SDS011;5216;54.602;18.356;2023-02-10T07:49:54;20.50;;;7.23;;
10341;SDS011;5216;54.602;18.356;2023-02-10T07:52:21;16.80;;;6.53;;
10341;SDS011;5216;54.602;18.356;2023-02-10T07:54:48;14.67;;;5.80;;
10341;SDS011;5216;54.602;18.356;2023-02-10T07:57:15;16.67;;;6.23;;
10341;SDS011;5216;54.602;18.356;2023-02-10T07:59:42;12.57;;;5.90;;
10341;SDS011;5216;54.602;18.356;2023-02-10T08:02:11;17.53;;;6.90;;
10341;SDS011;5216;54.602;18.356;2023-02-10T08:04:38;16.07;;;6.57;;
10341;SDS011;5216;54.602;18.356;2023-02-10T08:07:04;15.43;;;6.10;;
10341;SDS011;5216;54.602;18.356;2023-02-10T08:09:31;14.90;;;6.70;;
10341;SDS011;5216;54.602;18.356;2023-02-10T08:11:58;16.53;;;5.90;;
10341;SDS011;5216;54.602;18.356;2023-02-10T08:14:24;18.13;;;6.30;;
10341;SDS011;5216;54.602;18.356;2023-02-10T08:16:51;13.53;;;6.07;;
10341;SDS011;5216;54.602;18.356;2023-02-10T08:19:17;20.13;;;6.17;;
10341;SDS011;5216;54.602;18.356;2023-02-10T08:21:44;11.70;;;6.20;;
10341;SDS011;5216;54.602;18.356;2023-02-10T08:24:10;15.33;;;6.13;;
10341;SDS011;5216;54.602;18.356;2023-02-10T08:26:37;14.20;;;5.73;;
10341;SDS011;5216;54.602;18.356;2023-02-10T08:29:03;16.60;;;6.47;;
10341;SDS011;5216;54.602;18.356;2023-02-10T08:31:30;14.17;;;5.20;;
10341;SDS011;5216;54.602;18.356;2023-02-10T08:33:56;17.60;;;5.73;;
10341;SDS011;5216;54.602;18.356;2023-02-10T08:36:23;14.17;;;5.90;;
10341;SDS011;5216;54.602;18.356;2023-02-10T08:38:49;18.03;;;7.07;;
10341;SDS011;5216;54.602;18.356;2023-02-10T08:41:17;11.07;;;5.37;;
10341;SDS011;5216;54.602;18.356;2023-02-10T08:43:44;14.80;;;5.10;;
10341;SDS011;5216;54.602;18.356;2023-02-10T08:46:10;15.13;;;6.03;;
10341;SDS011;5216;54.602;18.356;2023-02-10T08:48:43;15.23;;;4.80;;
10341;SDS011;5216;54.602;18.356;2023-02-10T08:51:10;9.80;;;4.60;;
10341;SDS011;5216;54.602;18.356;2023-02-10T08:53:37;17.37;;;4.50;;
10341;SDS011;5216;54.602;18.356;2023-02-10T08:56:05;13.43;;;4.50;;
10341;SDS011;5216;54.602;18.356;2023-02-10T08:58:32;16.77;;;4.80;;
10341;SDS011;5216;54.602;18.356;2023-02-10T09:00:58;12.90;;;5.07;;
10341;SDS011;5216;54.602;18.356;2023-02-10T09:03:25;13.63;;;4.73;;
10341;SDS011;5216;54.602;18.356;2023-02-10T09:05:52;14.83;;;4.80;;
10341;SDS011;5216;54.602;18.356;2023-02-10T09:08:19;14.67;;;5.30;;
10341;SDS011;5216;54.602;18.356;2023-02-10T09:10:46;16.27;;;5.83;;
10341;SDS011;5216;54.602;18.356;2023-02-10T09:13:13;13.43;;;5.40;;
10341;SDS011;5216;54.602;18.356;2023-02-10T09:15:40;14.10;;;5.33;;
10341;SDS011;5216;54.602;18.356;2023-02-10T09:18:07;13.03;;;5.20;;
10341;SDS011;5216;54.602;18.356;2023-02-10T09:20:34;16.70;;;5.53;;
10341;SDS011;5216;54.602;18.356;2023-02-10T09:23:01;14.57;;;5.37;;
10341;SDS011;5216;54.602;18.356;2023-02-10T09:25:28;14.20;;;5.37;;
10341;SDS011;5216;54.602;18.356;2023-02-10T09:27:55;13.60;;;4.90;;
10341;SDS011;5216;54.602;18.356;2023-02-10T09:30:26;13.50;;;4.87;;
10341;SDS011;5216;54.602;18.356;2023-02-10T09:32:55;15.10;;;5.73;;
10341;SDS011;5216;54.602;18.356;2023-02-10T09:35:22;15.50;;;5.17;;
10341;SDS011;5216;54.602;18.356;2023-02-10T09:37:48;18.37;;;6.30;;
10341;SDS011;5216;54.602;18.356;2023-02-10T09:40:16;18.03;;;8.27;;
10341;SDS011;5216;54.602;18.356;2023-02-10T09:45:15;16.73;;;7.70;;
10341;SDS011;5216;54.602;18.356;2023-02-10T09:47:50;17.90;;;6.97;;
10341;SDS011;5216;54.602;18.356;2023-02-10T09:55:38;16.90;;;6.60;;
10341;SDS011;5216;54.602;18.356;2023-02-10T10:00:53;16.90;;;5.33;;
10341;SDS011;5216;54.602;18.356;2023-02-10T10:03:44;14.67;;;4.33;;
10341;SDS011;5216;54.602;18.356;2023-02-10T10:13:59;14.37;;;4.70;;
10341;SDS011;5216;54.602;18.356;2023-02-10T10:19:14;17.40;;;5.20;;
10341;SDS011;5216;54.602;18.356;2023-02-10T10:21:51;20.33;;;7.50;;
10341;SDS011;5216;54.602;18.356;2023-02-10T10:29:23;15.57;;;5.50;;
10341;SDS011;5216;54.602;18.356;2023-02-10T10:31:55;14.40;;;4.60;;
10341;SDS011;5216;54.602;18.356;2023-02-10T10:34:24;13.63;;;4.53;;
10341;SDS011;5216;54.602;18.356;2023-02-10T10:36:54;14.00;;;5.20;;
10341;SDS011;5216;54.602;18.356;2023-02-10T10:39:33;11.73;;;4.30;;
10341;SDS011;5216;54.602;18.356;2023-02-10T10:45:45;12.33;;;3.93;;
10341;SDS011;5216;54.602;18.356;2023-02-10T10:48:19;13.67;;;4.00;;
10341;SDS011;5216;54.602;18.356;2023-02-10T10:50:51;12.77;;;5.27;;
10341;SDS011;5216;54.602;18.356;2023-02-10T10:53:19;15.40;;;7.77;;
10341;SDS011;5216;54.602;18.356;2023-02-10T10:55:57;16.17;;;6.43;;
10341;SDS011;5216;54.602;18.356;2023-02-10T10:58:38;24.50;;;12.33;;
10341;SDS011;5216;54.602;18.356;2023-02-10T11:01:06;15.37;;;5.67;;
10341;SDS011;5216;54.602;18.356;2023-02-10T11:03:33;15.80;;;6.03;;
10341;SDS011;5216;54.602;18.356;2023-02-10T11:06:01;11.80;;;4.17;;
10341;SDS011;5216;54.602;18.356;2023-02-10T11:08:30;14.63;;;5.40;;
10341;SDS011;5216;54.602;18.356;2023-02-10T11:10:58;19.77;;;6.70;;
10341;SDS011;5216;54.602;18.356;2023-02-10T11:13:26;20.30;;;10.10;;
10341;SDS011;5216;54.602;18.356;2023-02-10T11:15:58;14.20;;;5.97;;
10341;SDS011;5216;54.602;18.356;2023-02-10T11:18:25;16.27;;;7.07;;
10341;SDS011;5216;54.602;18.356;2023-02-10T11:20:59;23.03;;;8.57;;
10341;SDS011;5216;54.602;18.356;2023-02-10T11:23:26;15.30;;;5.97;;
10341;SDS011;5216;54.602;18.356;2023-02-10T11:28:24;11.77;;;4.30;;
10341;SDS011;5216;54.602;18.356;2023-02-10T11:33:41;6.50;;;2.47;;
10341;SDS011;5216;54.602;18.356;2023-02-10T11:36:08;11.40;;;3.60;;
10341;SDS011;5216;54.602;18.356;2023-02-10T11:41:29;14.27;;;5.40;;
10341;SDS011;5216;54.602;18.356;2023-02-10T11:43:56;12.17;;;4.33;;
10341;SDS011;5216;54.602;18.356;2023-02-10T11:46:24;12.33;;;4.73;;
10341;SDS011;5216;54.602;18.356;2023-02-10T11:48:55;13.93;;;4.60;;
10341;SDS011;5216;54.602;18.356;2023-02-10T11:51:22;14.70;;;4.77;;
10341;SDS011;5216;54.602;18.356;2023-02-10T11:53:49;12.67;;;4.33;;
10341;SDS011;5216;54.602;18.356;2023-02-10T12:07:31;10.27;;;4.13;;
10341;SDS011;5216;54.602;18.356;2023-02-10T12:10:08;14.87;;;4.40;;
10341;SDS011;5216;54.602;18.356;2023-02-10T12:12:41;15.60;;;4.90;;
10341;SDS011;5216;54.602;18.356;2023-02-10T12:17:56;12.90;;;4.03;;
10341;SDS011;5216;54.602;18.356;2023-02-10T12:20:29;7.83;;;3.53;;
10341;SDS011;5216;54.602;18.356;2023-02-10T12:25:43;15.60;;;4.07;;
10341;SDS011;5216;54.602;18.356;2023-02-10T12:28:14;14.30;;;3.90;;
10341;SDS011;5216;54.602;18.356;2023-02-10T12:31:00;11.20;;;4.90;;
10341;SDS011;5216;54.602;18.356;2023-02-10T12:33:56;9.17;;;3.37;;
10341;SDS011;5216;54.602;18.356;2023-02-10T12:36:31;11.70;;;4.20;;
10341;SDS011;5216;54.602;18.356;2023-02-10T12:39:21;13.40;;;4.27;;
10341;SDS011;5216;54.602;18.356;2023-02-10T12:47:00;12.30;;;4.13;;
10341;SDS011;5216;54.602;18.356;2023-02-10T12:49:34;17.87;;;5.97;;
10341;SDS011;5216;54.602;18.356;2023-02-10T12:57:16;16.00;;;6.40;;
10341;SDS011;5216;54.602;18.356;2023-02-10T13:05:03;9.07;;;3.80;;
10341;SDS011;5216;54.602;18.356;2023-02-10T13:10:15;15.43;;;9.07;;
10341;SDS011;5216;54.602;18.356;2023-02-10T13:12:44;16.70;;;8.53;;
10341;SDS011;5216;54.602;18.356;2023-02-10T13:17:47;10.17;;;4.80;;
10341;SDS011;5216;54.602;18.356;2023-02-10T13:23:17;13.10;;;5.10;;
10341;SDS011;5216;54.602;18.356;2023-02-10T13:28:35;9.30;;;4.67;;
10341;SDS011;5216;54.602;18.356;2023-02-10T13:36:20;9.10;;;3.80;;
10341;SDS011;5216;54.602;18.356;2023-02-10T13:42:38;16.20;;;3.93;;
10341;SDS011;5216;54.602;18.356;2023-02-10T13:45:06;12.17;;;4.90;;
10341;SDS011;5216;54.602;18.356;2023-02-10T13:47:41;19.60;;;8.60;;
10341;SDS011;5216;54.602;18.356;2023-02-10T13:57:59;10.30;;;3.67;;
10341;SDS011;5216;54.602;18.356;2023-02-10T14:00:42;11.83;;;4.60;;
10341;SDS011;5216;54.602;18.356;2023-02-10T14:05:59;14.67;;;4.60;;
10341;SDS011;5216;54.602;18.356;2023-02-10T14:10:58;24.37;;;11.33;;
10341;SDS011;5216;54.602;18.356;2023-02-10T14:13:25;24.20;;;9.87;;
10341;SDS011;5216;54.602;18.356;2023-02-10T14:18:24;15.87;;;7.33;;
10341;SDS011;5216;54.602;18.356;2023-02-10T14:20:55;13.50;;;5.60;;
10341;SDS011;5216;54.602;18.356;2023-02-10T14:23:21;17.90;;;5.47;;
10341;SDS011;5216;54.602;18.356;2023-02-10T14:25:54;12.87;;;5.47;;
10341;SDS011;5216;54.602;18.356;2023-02-10T14:28:22;15.10;;;6.73;;
10341;SDS011;5216;54.602;18.356;2023-02-10T14:30:51;18.27;;;9.13;;
10341;SDS011;5216;54.602;18.356;2023-02-10T14:33:21;14.07;;;5.70;;
10341;SDS011;5216;54.602;18.356;2023-02-10T14:35:51;16.73;;;6.93;;
10341;SDS011;5216;54.602;18.356;2023-02-10T14:38:20;22.27;;;12.67;;
10341;SDS011;5216;54.602;18.356;2023-02-10T14:40:46;11.60;;;4.80;;
10341;SDS011;5216;54.602;18.356;2023-02-10T14:43:13;10.87;;;4.17;;
10341;SDS011;5216;54.602;18.356;2023-02-10T14:45:44;12.40;;;4.60;;
10341;SDS011;5216;54.602;18.356;2023-02-10T14:48:12;15.33;;;5.47;;
10341;SDS011;5216;54.602;18.356;2023-02-10T14:50:55;12.93;;;5.23;;
10341;SDS011;5216;54.602;18.356;2023-02-10T14:53:29;14.07;;;5.20;;
10341;SDS011;5216;54.602;18.356;2023-02-10T14:55:57;13.57;;;5.37;;
10341;SDS011;5216;54.602;18.356;2023-02-10T14:58:42;12.83;;;4.77;;
10341;SDS011;5216;54.602;18.356;2023-02-10T15:01:37;19.07;;;8.63;;
10341;SDS011;5216;54.602;18.356;2023-02-10T15:04:38;26.30;;;16.13;;
10341;SDS011;5216;54.602;18.356;2023-02-10T15:07:10;23.57;;;14.07;;
10341;SDS011;5216;54.602;18.356;2023-02-10T15:09:45;26.87;;;15.53;;
10341;SDS011;5216;54.602;18.356;2023-02-10T15:12:12;18.33;;;8.47;;
10341;SDS011;5216;54.602;18.356;2023-02-10T15:17:38;20.53;;;7.80;;
10341;SDS011;5216;54.602;18.356;2023-02-10T15:27:57;19.67;;;9.73;;
10341;SDS011;5216;54.602;18.356;2023-02-10T15:33:20;18.23;;;5.90;;
10341;SDS011;5216;54.602;18.356;2023-02-10T15:35:53;13.57;;;6.80;;
10341;SDS011;5216;54.602;18.356;2023-02-10T15:38:24;15.30;;;6.60;;
10341;SDS011;5216;54.602;18.356;2023-02-10T15:40:55;18.67;;;8.97;;
10341;SDS011;5216;54.602;18.356;2023-02-10T15:43:29;23.07;;;10.47;;
10341;SDS011;5216;54.602;18.356;2023-02-10T15:46:14;14.23;;;5.80;;
10341;SDS011;5216;54.602;18.356;2023-02-10T15:48:41;19.90;;;8.03;;
10341;SDS011;5216;54.602;18.356;2023-02-10T15:51:11;21.30;;;9.33;;
10341;SDS011;5216;54.602;18.356;2023-02-10T15:53:42;19.97;;;9.57;;
10341;SDS011;5216;54.602;18.356;2023-02-10T15:56:09;25.03;;;10.37;;
10341;SDS011;5216;54.602;18.356;2023-02-10T15:58:36;23.70;;;11.57;;
10341;SDS011;5216;54.602;18.356;2023-02-10T16:01:02;18.17;;;8.60;;
10341;SDS011;5216;54.602;18.356;2023-02-10T16:03:29;19.07;;;6.93;;
10341;SDS011;5216;54.602;18.356;2023-02-10T16:05:56;17.53;;;6.00;;
10341;SDS011;5216;54.602;18.356;2023-02-10T16:08:28;25.87;;;11.10;;
10341;SDS011;5216;54.602;18.356;2023-02-10T16:10:54;21.40;;;9.07;;
10341;SDS011;5216;54.602;18.356;2023-02-10T16:13:27;18.17;;;5.67;;
10341;SDS011;5216;54.602;18.356;2023-02-10T16:15:54;15.97;;;5.43;;
10341;SDS011;5216;54.602;18.356;2023-02-10T16:18:22;19.80;;;7.20;;
10341;SDS011;5216;54.602;18.356;2023-02-10T16:20:50;19.03;;;8.50;;
10341;SDS011;5216;54.602;18.356;2023-02-10T16:23:17;21.70;;;8.50;;
10341;SDS011;5216;54.602;18.356;2023-02-10T16:25:45;19.97;;;6.80;;
10341;SDS011;5216;54.602;18.356;2023-02-10T16:28:16;15.43;;;5.30;;
10341;SDS011;5216;54.602;18.356;2023-02-10T16:30:44;20.20;;;6.90;;
10341;SDS011;5216;54.602;18.356;2023-02-10T16:33:12;14.73;;;6.10;;
10341;SDS011;5216;54.602;18.356;2023-02-10T16:35:41;18.63;;;5.37;;
10341;SDS011;5216;54.602;18.356;2023-02-10T16:38:10;15.33;;;6.13;;
10341;SDS011;5216;54.602;18.356;2023-02-10T16:40:44;18.33;;;6.60;;
10341;SDS011;5216;54.602;18.356;2023-02-10T16:43:10;17.73;;;6.80;;
10341;SDS011;5216;54.602;18.356;2023-02-10T16:45:37;19.83;;;7.27;;
10341;SDS011;5216;54.602;18.356;2023-02-10T16:48:04;21.70;;;8.53;;
10341;SDS011;5216;54.602;18.356;2023-02-10T16:50:38;15.93;;;6.97;;
10341;SDS011;5216;54.602;18.356;2023-02-10T16:53:05;18.73;;;7.20;;
10341;SDS011;5216;54.602;18.356;2023-02-10T16:55:34;19.93;;;8.67;;
10341;SDS011;5216;54.602;18.356;2023-02-10T16:58:00;23.53;;;8.67;;
10341;SDS011;5216;54.602;18.356;2023-02-10T17:00:27;21.00;;;7.93;;
10341;SDS011;5216;54.602;18.356;2023-02-10T17:02:54;20.73;;;7.70;;
10341;SDS011;5216;54.602;18.356;2023-02-10T17:05:27;16.60;;;7.57;;
10341;SDS011;5216;54.602;18.356;2023-02-10T17:08:06;14.47;;;6.90;;
10341;SDS011;5216;54.602;18.356;2023-02-10T17:10:33;17.23;;;6.90;;
10341;SDS011;5216;54.602;18.356;2023-02-10T17:12:59;15.33;;;6.90;;
10341;SDS011;5216;54.602;18.356;2023-02-10T17:15:26;20.70;;;7.30;;
10341;SDS011;5216;54.602;18.356;2023-02-10T17:17:53;17.30;;;6.23;;
10341;SDS011;5216;54.602;18.356;2023-02-10T17:20:27;18.23;;;6.90;;
10341;SDS011;5216;54.602;18.356;2023-02-10T17:22:54;15.90;;;6.17;;
10341;SDS011;5216;54.602;18.356;2023-02-10T17:25:21;20.70;;;7.07;;
10341;SDS011;5216;54.602;18.356;2023-02-10T17:27:49;14.30;;;6.07;;
10341;SDS011;5216;54.602;18.356;2023-02-10T17:30:16;16.97;;;6.43;;
10341;SDS011;5216;54.602;18.356;2023-02-10T17:32:43;14.13;;;5.80;;
10341;SDS011;5216;54.602;18.356;2023-02-10T17:35:15;16.10;;;6.27;;
10341;SDS011;5216;54.602;18.356;2023-02-10T17:37:44;17.60;;;8.47;;
10341;SDS011;5216;54.602;18.356;2023-02-10T17:40:12;19.77;;;7.50;;